sensor_id;sensor_type;location;lat;lon;timestamp;temperature;humidity
28947;DHT22;16052;50.930;5.326;2023-07-31T00:01:18;17.70;99.90
28947;DHT22;16052;50.930;5.326;2023-07-31T00:03:43;17.80;99.90
28947;DHT22;16052;50.930;5.326;2023-07-31T00:06:09;17.80;99.90
28947;DHT22;16052;50.930;5.326;2023-07-31T00:08:34;17.70;99.90
28947;DHT22;16052;50.930;5.326;2023-07-31T00:11:00;17.70;99.90
28947;DHT22;16052;50.930;5.326;2023-07-31T00:13:26;17.70;99.90
28947;DHT22;16052;50.930;5.326;2023-07-31T00:15:51;17.60;99.90
28947;DHT22;16052;50.930;5.326;2023-07-31T00:18:17;17.60;99.90
28947;DHT22;16052;50.930;5.326;2023-07-31T00:20:42;17.70;99.90
28947;DHT22;16052;50.930;5.326;2023-07-31T00:23:08;17.70;99.90
28947;DHT22;16052;50.930;5.326;2023-07-31T00:25:34;17.70;99.90
28947;DHT22;16052;50.930;5.326;2023-07-31T00:27:59;17.70;99.90
28947;DHT22;16052;50.930;5.326;2023-07-31T00:30:25;17.80;99.90
28947;DHT22;16052;50.930;5.326;2023-07-31T00:32:52;17.70;99.90
28947;DHT22;16052;50.930;5.326;2023-07-31T00:35:18;17.80;99.90
28947;DHT22;16052;50.930;5.326;2023-07-31T00:37:43;17.70;99.90
28947;DHT22;16052;50.930;5.326;2023-07-31T00:40:10;17.80;99.90
28947;DHT22;16052;50.930;5.326;2023-07-31T00:42:35;17.80;99.90
28947;DHT22;16052;50.930;5.326;2023-07-31T00:45:01;17.70;99.90
28947;DHT22;16052;50.930;5.326;2023-07-31T00:47:27;17.70;99.90
28947;DHT22;16052;50.930;5.326;2023-07-31T00:49:53;17.70;99.90
28947;DHT22;16052;50.930;5.326;2023-07-31T00:52:19;17.70;99.90
28947;DHT22;16052;50.930;5.326;2023-07-31T00:54:45;17.70;99.90
28947;DHT22;16052;50.930;5.326;2023-07-31T00:57:11;17.70;99.90
28947;DHT22;16052;50.930;5.326;2023-07-31T00:59:36;17.70;99.90
28947;DHT22;16052;50.930;5.326;2023-07-31T01:02:02;17.60;99.90
28947;DHT22;16052;50.930;5.326;2023-07-31T01:04:29;17.70;99.90
28947;DHT22;16052;50.930;5.326;2023-07-31T01:07:03;17.80;99.90
28947;DHT22;16052;50.930;5.326;2023-07-31T01:09:40;17.80;99.90
28947;DHT22;16052;50.930;5.326;2023-07-31T01:12:09;17.90;99.90
28947;DHT22;16052;50.930;5.326;2023-07-31T01:14:35;17.90;99.90
28947;DHT22;16052;50.930;5.326;2023-07-31T01:17:01;17.90;99.90
28947;DHT22;16052;50.930;5.326;2023-07-31T01:19:27;17.90;99.90
28947;DHT22;16052;50.930;5.326;2023-07-31T01:27:25;17.90;99.90
28947;DHT22;16052;50.930;5.326;2023-07-31T01:32:56;17.90;99.90
28947;DHT22;16052;50.930;5.326;2023-07-31T01:35:23;18.00;99.90
28947;DHT22;16052;50.930;5.326;2023-07-31T01:37:49;18.00;99.90
28947;DHT22;16052;50.930;5.326;2023-07-31T01:40:14;18.00;99.90
28947;DHT22;16052;50.930;5.326;2023-07-31T01:42:40;18.00;99.90
28947;DHT22;16052;50.930;5.326;2023-07-31T01:45:06;18.10;99.90
28947;DHT22;16052;50.930;5.326;2023-07-31T01:47:32;18.00;99.90
28947;DHT22;16052;50.930;5.326;2023-07-31T01:49:57;18.00;99.90
28947;DHT22;16052;50.930;5.326;2023-07-31T01:52:23;18.00;99.90
28947;DHT22;16052;50.930;5.326;2023-07-31T01:54:48;18.10;99.90
28947;DHT22;16052;50.930;5.326;2023-07-31T01:57:14;18.20;99.90
28947;DHT22;16052;50.930;5.326;2023-07-31T01:59:40;18.20;99.90
28947;DHT22;16052;50.930;5.326;2023-07-31T02:02:05;18.10;99.90
28947;DHT22;16052;50.930;5.326;2023-07-31T02:04:31;18.10;99.90
28947;DHT22;16052;50.930;5.326;2023-07-31T02:06:57;18.00;99.90
28947;DHT22;16052;50.930;5.326;2023-07-31T02:09:22;18.00;99.90
28947;DHT22;16052;50.930;5.326;2023-07-31T02:11:48;18.10;99.90
28947;DHT22;16052;50.930;5.326;2023-07-31T02:14:14;18.00;99.90
28947;DHT22;16052;50.930;5.326;2023-07-31T02:16:40;18.10;99.90
28947;DHT22;16052;50.930;5.326;2023-07-31T02:19:08;18.20;99.90
28947;DHT22;16052;50.930;5.326;2023-07-31T02:21:33;18.20;99.90
28947;DHT22;16052;50.930;5.326;2023-07-31T02:23:59;18.30;99.90
28947;DHT22;16052;50.930;5.326;2023-07-31T02:26:25;18.20;99.90
28947;DHT22;16052;50.930;5.326;2023-07-31T02:28:50;18.30;99.90
28947;DHT22;16052;50.930;5.326;2023-07-31T02:31:16;18.30;99.90
28947;DHT22;16052;50.930;5.326;2023-07-31T02:33:42;18.30;99.90
28947;DHT22;16052;50.930;5.326;2023-07-31T02:36:07;18.10;99.90
28947;DHT22;16052;50.930;5.326;2023-07-31T02:38:34;18.10;99.90
28947;DHT22;16052;50.930;5.326;2023-07-31T02:40:59;18.10;99.90
28947;DHT22;16052;50.930;5.326;2023-07-31T02:43:25;18.10;99.90
28947;DHT22;16052;50.930;5.326;2023-07-31T02:45:52;18.10;99.90
28947;DHT22;16052;50.930;5.326;2023-07-31T02:48:18;18.10;99.90
28947;DHT22;16052;50.930;5.326;2023-07-31T02:50:45;18.10;99.90
28947;DHT22;16052;50.930;5.326;2023-07-31T02:53:13;18.10;99.90
28947;DHT22;16052;50.930;5.326;2023-07-31T02:55:39;18.10;99.90
28947;DHT22;16052;50.930;5.326;2023-07-31T02:58:04;18.10;99.90
28947;DHT22;16052;50.930;5.326;2023-07-31T03:00:30;18.00;99.90
28947;DHT22;16052;50.930;5.326;2023-07-31T03:02:56;18.10;99.90
28947;DHT22;16052;50.930;5.326;2023-07-31T03:05:21;18.00;99.90
28947;DHT22;16052;50.930;5.326;2023-07-31T03:07:47;18.00;99.90
28947;DHT22;16052;50.930;5.326;2023-07-31T03:10:13;18.00;99.90
28947;DHT22;16052;50.930;5.326;2023-07-31T03:12:39;18.10;99.90
28947;DHT22;16052;50.930;5.326;2023-07-31T03:15:05;18.10;99.90
28947;DHT22;16052;50.930;5.326;2023-07-31T03:17:31;18.20;99.90
28947;DHT22;16052;50.930;5.326;2023-07-31T03:19:57;18.30;99.90
28947;DHT22;16052;50.930;5.326;2023-07-31T03:22:22;18.20;99.90
28947;DHT22;16052;50.930;5.326;2023-07-31T03:24:54;18.10;99.90
28947;DHT22;16052;50.930;5.326;2023-07-31T03:27:19;18.10;99.90
28947;DHT22;16052;50.930;5.326;2023-07-31T03:29:45;18.10;99.90
28947;DHT22;16052;50.930;5.326;2023-07-31T03:32:11;18.10;99.90
28947;DHT22;16052;50.930;5.326;2023-07-31T03:34:36;18.00;99.90
28947;DHT22;16052;50.930;5.326;2023-07-31T03:37:03;18.10;99.90
28947;DHT22;16052;50.930;5.326;2023-07-31T03:39:30;18.10;99.90
28947;DHT22;16052;50.930;5.326;2023-07-31T03:41:56;18.10;99.90
28947;DHT22;16052;50.930;5.326;2023-07-31T03:44:21;18.00;99.90
28947;DHT22;16052;50.930;5.326;2023-07-31T03:46:47;18.00;99.90
28947;DHT22;16052;50.930;5.326;2023-07-31T03:49:13;18.10;99.90
28947;DHT22;16052;50.930;5.326;2023-07-31T03:51:39;18.20;99.90
28947;DHT22;16052;50.930;5.326;2023-07-31T03:54:05;18.10;99.90
28947;DHT22;16052;50.930;5.326;2023-07-31T03:56:33;18.10;99.90
28947;DHT22;16052;50.930;5.326;2023-07-31T03:58:58;18.00;99.90
28947;DHT22;16052;50.930;5.326;2023-07-31T04:01:24;18.00;99.90
28947;DHT22;16052;50.930;5.326;2023-07-31T04:03:51;18.00;99.90
28947;DHT22;16052;50.930;5.326;2023-07-31T04:06:17;18.00;99.90
28947;DHT22;16052;50.930;5.326;2023-07-31T04:08:44;18.00;99.90
28947;DHT22;16052;50.930;5.326;2023-07-31T04:11:10;18.00;99.90
28947;DHT22;16052;50.930;5.326;2023-07-31T04:13:37;18.10;99.90
28947;DHT22;16052;50.930;5.326;2023-07-31T04:16:03;18.00;99.90
28947;DHT22;16052;50.930;5.326;2023-07-31T04:18:28;17.90;99.90
28947;DHT22;16052;50.930;5.326;2023-07-31T04:20:56;17.90;99.90
28947;DHT22;16052;50.930;5.326;2023-07-31T04:23:26;17.90;99.90
28947;DHT22;16052;50.930;5.326;2023-07-31T04:25:52;17.90;99.90
28947;DHT22;16052;50.930;5.326;2023-07-31T04:28:17;17.90;99.90
28947;DHT22;16052;50.930;5.326;2023-07-31T04:30:43;18.00;99.90
28947;DHT22;16052;50.930;5.326;2023-07-31T04:33:09;18.00;99.90
28947;DHT22;16052;50.930;5.326;2023-07-31T04:35:35;18.00;99.90
28947;DHT22;16052;50.930;5.326;2023-07-31T04:38:00;18.00;99.90
28947;DHT22;16052;50.930;5.326;2023-07-31T04:40:26;18.00;99.90
28947;DHT22;16052;50.930;5.326;2023-07-31T04:42:52;18.00;99.90
28947;DHT22;16052;50.930;5.326;2023-07-31T04:45:17;18.00;99.90
28947;DHT22;16052;50.930;5.326;2023-07-31T04:47:43;17.90;99.90
28947;DHT22;16052;50.930;5.326;2023-07-31T04:50:10;17.90;99.90
28947;DHT22;16052;50.930;5.326;2023-07-31T04:52:36;17.90;99.90
28947;DHT22;16052;50.930;5.326;2023-07-31T04:55:01;17.90;99.90
28947;DHT22;16052;50.930;5.326;2023-07-31T04:57:27;17.90;99.90
28947;DHT22;16052;50.930;5.326;2023-07-31T04:59:53;17.80;99.90
28947;DHT22;16052;50.930;5.326;2023-07-31T05:02:18;17.80;99.90
28947;DHT22;16052;50.930;5.326;2023-07-31T05:04:44;17.70;99.90
28947;DHT22;16052;50.930;5.326;2023-07-31T05:07:10;17.70;99.90
28947;DHT22;16052;50.930;5.326;2023-07-31T05:09:35;17.70;99.90
28947;DHT22;16052;50.930;5.326;2023-07-31T05:12:01;17.70;99.90
28947;DHT22;16052;50.930;5.326;2023-07-31T05:14:27;17.60;99.90
28947;DHT22;16052;50.930;5.326;2023-07-31T05:16:52;17.60;99.90
28947;DHT22;16052;50.930;5.326;2023-07-31T05:19:18;17.50;99.90
28947;DHT22;16052;50.930;5.326;2023-07-31T05:21:43;17.60;99.90
28947;DHT22;16052;50.930;5.326;2023-07-31T05:24:10;17.60;99.90
28947;DHT22;16052;50.930;5.326;2023-07-31T05:26:36;17.70;99.90
28947;DHT22;16052;50.930;5.326;2023-07-31T05:29:03;17.80;99.90
28947;DHT22;16052;50.930;5.326;2023-07-31T05:31:29;17.80;99.90
28947;DHT22;16052;50.930;5.326;2023-07-31T05:33:54;17.70;99.90
28947;DHT22;16052;50.930;5.326;2023-07-31T05:36:20;17.70;99.90
28947;DHT22;16052;50.930;5.326;2023-07-31T05:38:46;17.70;99.90
28947;DHT22;16052;50.930;5.326;2023-07-31T05:41:12;17.70;99.90
28947;DHT22;16052;50.930;5.326;2023-07-31T05:43:38;17.70;99.90
28947;DHT22;16052;50.930;5.326;2023-07-31T05:46:04;17.70;99.90
28947;DHT22;16052;50.930;5.326;2023-07-31T05:48:29;17.70;99.90
28947;DHT22;16052;50.930;5.326;2023-07-31T05:50:55;17.70;99.90
28947;DHT22;16052;50.930;5.326;2023-07-31T05:53:20;17.70;99.90
28947;DHT22;16052;50.930;5.326;2023-07-31T05:55:46;17.70;99.90
28947;DHT22;16052;50.930;5.326;2023-07-31T05:58:12;17.70;99.90
28947;DHT22;16052;50.930;5.326;2023-07-31T06:00:37;17.70;99.90
28947;DHT22;16052;50.930;5.326;2023-07-31T06:03:03;17.70;99.90
28947;DHT22;16052;50.930;5.326;2023-07-31T06:05:30;17.80;99.90
28947;DHT22;16052;50.930;5.326;2023-07-31T06:07:56;17.70;99.90
28947;DHT22;16052;50.930;5.326;2023-07-31T06:10:23;17.60;99.90
28947;DHT22;16052;50.930;5.326;2023-07-31T06:12:48;17.50;99.90
28947;DHT22;16052;50.930;5.326;2023-07-31T06:15:14;17.50;99.90
28947;DHT22;16052;50.930;5.326;2023-07-31T06:17:41;17.40;99.90
28947;DHT22;16052;50.930;5.326;2023-07-31T06:20:08;17.40;99.90
28947;DHT22;16052;50.930;5.326;2023-07-31T06:22:34;17.30;99.90
28947;DHT22;16052;50.930;5.326;2023-07-31T06:24:59;17.30;99.90
28947;DHT22;16052;50.930;5.326;2023-07-31T06:27:25;17.30;99.90
28947;DHT22;16052;50.930;5.326;2023-07-31T06:29:51;17.30;99.90
28947;DHT22;16052;50.930;5.326;2023-07-31T06:32:16;17.20;99.90
28947;DHT22;16052;50.930;5.326;2023-07-31T06:34:42;17.10;99.90
28947;DHT22;16052;50.930;5.326;2023-07-31T06:37:08;17.10;99.90
28947;DHT22;16052;50.930;5.326;2023-07-31T06:39:34;17.10;99.90
28947;DHT22;16052;50.930;5.326;2023-07-31T06:42:00;17.10;99.90
28947;DHT22;16052;50.930;5.326;2023-07-31T06:44:27;17.20;99.90
28947;DHT22;16052;50.930;5.326;2023-07-31T06:46:52;17.20;99.90
28947;DHT22;16052;50.930;5.326;2023-07-31T06:49:18;17.30;99.90
28947;DHT22;16052;50.930;5.326;2023-07-31T06:51:44;17.30;99.90
28947;DHT22;16052;50.930;5.326;2023-07-31T06:54:09;17.20;99.90
28947;DHT22;16052;50.930;5.326;2023-07-31T06:56:35;17.20;99.90
28947;DHT22;16052;50.930;5.326;2023-07-31T06:59:01;17.20;99.90
28947;DHT22;16052;50.930;5.326;2023-07-31T07:01:26;17.20;99.90
28947;DHT22;16052;50.930;5.326;2023-07-31T07:03:54;17.30;99.90
28947;DHT22;16052;50.930;5.326;2023-07-31T07:06:19;17.30;99.90
28947;DHT22;16052;50.930;5.326;2023-07-31T07:08:45;17.40;99.90
28947;DHT22;16052;50.930;5.326;2023-07-31T07:11:11;17.30;99.90
28947;DHT22;16052;50.930;5.326;2023-07-31T07:13:37;17.30;99.90
28947;DHT22;16052;50.930;5.326;2023-07-31T07:16:02;17.30;99.90
28947;DHT22;16052;50.930;5.326;2023-07-31T07:18:28;17.30;99.90
28947;DHT22;16052;50.930;5.326;2023-07-31T07:20:54;17.40;99.90
28947;DHT22;16052;50.930;5.326;2023-07-31T07:23:20;17.40;99.90
28947;DHT22;16052;50.930;5.326;2023-07-31T07:25:47;17.30;99.90
28947;DHT22;16052;50.930;5.326;2023-07-31T07:28:13;17.30;99.90
28947;DHT22;16052;50.930;5.326;2023-07-31T07:30:39;17.30;99.90
28947;DHT22;16052;50.930;5.326;2023-07-31T07:33:05;17.40;99.90
28947;DHT22;16052;50.930;5.326;2023-07-31T07:35:35;17.40;99.90
28947;DHT22;16052;50.930;5.326;2023-07-31T07:38:02;17.50;99.90
28947;DHT22;16052;50.930;5.326;2023-07-31T07:40:28;17.50;99.90
28947;DHT22;16052;50.930;5.326;2023-07-31T07:42:53;17.50;99.90
28947;DHT22;16052;50.930;5.326;2023-07-31T07:45:19;17.50;99.90
28947;DHT22;16052;50.930;5.326;2023-07-31T07:47:45;17.50;99.90
28947;DHT22;16052;50.930;5.326;2023-07-31T07:50:10;17.50;99.90
28947;DHT22;16052;50.930;5.326;2023-07-31T07:52:37;17.40;99.90
28947;DHT22;16052;50.930;5.326;2023-07-31T07:55:03;17.50;99.90
28947;DHT22;16052;50.930;5.326;2023-07-31T07:57:29;17.50;99.90
28947;DHT22;16052;50.930;5.326;2023-07-31T07:59:54;17.50;99.90
28947;DHT22;16052;50.930;5.326;2023-07-31T08:02:21;17.50;99.90
28947;DHT22;16052;50.930;5.326;2023-07-31T08:04:47;17.50;99.90
28947;DHT22;16052;50.930;5.326;2023-07-31T08:07:12;17.50;99.90
28947;DHT22;16052;50.930;5.326;2023-07-31T08:09:38;17.50;99.90
28947;DHT22;16052;50.930;5.326;2023-07-31T08:12:05;17.60;99.90
28947;DHT22;16052;50.930;5.326;2023-07-31T08:14:31;17.60;99.90
28947;DHT22;16052;50.930;5.326;2023-07-31T08:16:56;17.60;99.90
28947;DHT22;16052;50.930;5.326;2023-07-31T08:19:22;17.60;99.90
28947;DHT22;16052;50.930;5.326;2023-07-31T08:21:48;17.60;99.90
28947;DHT22;16052;50.930;5.326;2023-07-31T08:24:13;17.60;99.90
28947;DHT22;16052;50.930;5.326;2023-07-31T08:26:39;17.50;99.90
28947;DHT22;16052;50.930;5.326;2023-07-31T08:29:05;17.50;99.90
28947;DHT22;16052;50.930;5.326;2023-07-31T08:31:31;17.50;99.90
28947;DHT22;16052;50.930;5.326;2023-07-31T08:33:57;17.40;99.90
28947;DHT22;16052;50.930;5.326;2023-07-31T08:36:22;17.40;99.90
28947;DHT22;16052;50.930;5.326;2023-07-31T08:38:48;17.50;99.90
28947;DHT22;16052;50.930;5.326;2023-07-31T08:41:15;17.50;99.90
28947;DHT22;16052;50.930;5.326;2023-07-31T08:43:46;17.50;99.90
28947;DHT22;16052;50.930;5.326;2023-07-31T08:46:13;17.40;99.90
28947;DHT22;16052;50.930;5.326;2023-07-31T08:48:41;17.40;99.90
28947;DHT22;16052;50.930;5.326;2023-07-31T08:51:07;17.40;99.90
28947;DHT22;16052;50.930;5.326;2023-07-31T08:53:33;17.50;99.90
28947;DHT22;16052;50.930;5.326;2023-07-31T08:56:00;17.40;99.90
28947;DHT22;16052;50.930;5.326;2023-07-31T08:58:27;17.40;99.90
28947;DHT22;16052;50.930;5.326;2023-07-31T09:00:56;17.30;99.90
28947;DHT22;16052;50.930;5.326;2023-07-31T09:03:25;17.30;99.90
28947;DHT22;16052;50.930;5.326;2023-07-31T09:05:51;17.40;99.90
28947;DHT22;16052;50.930;5.326;2023-07-31T09:08:20;17.40;99.90
28947;DHT22;16052;50.930;5.326;2023-07-31T09:10:46;17.50;99.90
28947;DHT22;16052;50.930;5.326;2023-07-31T09:13:13;17.50;99.90
28947;DHT22;16052;50.930;5.326;2023-07-31T09:15:41;17.50;99.90
28947;DHT22;16052;50.930;5.326;2023-07-31T09:18:08;17.50;99.90
28947;DHT22;16052;50.930;5.326;2023-07-31T09:20:34;17.60;99.90
28947;DHT22;16052;50.930;5.326;2023-07-31T09:23:11;17.60;99.90
28947;DHT22;16052;50.930;5.326;2023-07-31T09:25:38;17.60;99.90
28947;DHT22;16052;50.930;5.326;2023-07-31T09:28:06;17.70;99.90
28947;DHT22;16052;50.930;5.326;2023-07-31T09:30:47;17.60;99.90
28947;DHT22;16052;50.930;5.326;2023-07-31T09:33:14;17.60;99.90
28947;DHT22;16052;50.930;5.326;2023-07-31T09:35:40;17.60;99.90
28947;DHT22;16052;50.930;5.326;2023-07-31T09:38:10;17.50;99.90
28947;DHT22;16052;50.930;5.326;2023-07-31T09:40:39;17.50;99.90
28947;DHT22;16052;50.930;5.326;2023-07-31T09:43:07;17.50;99.90
28947;DHT22;16052;50.930;5.326;2023-07-31T09:45:40;17.60;99.90
28947;DHT22;16052;50.930;5.326;2023-07-31T09:48:11;17.60;99.90
28947;DHT22;16052;50.930;5.326;2023-07-31T09:50:39;17.60;99.90
28947;DHT22;16052;50.930;5.326;2023-07-31T09:53:19;17.70;99.90
28947;DHT22;16052;50.930;5.326;2023-07-31T09:55:45;17.70;99.90
28947;DHT22;16052;50.930;5.326;2023-07-31T09:58:12;17.80;99.90
28947;DHT22;16052;50.930;5.326;2023-07-31T10:00:38;17.90;99.90
28947;DHT22;16052;50.930;5.326;2023-07-31T10:03:06;17.80;99.90
28947;DHT22;16052;50.930;5.326;2023-07-31T10:05:49;17.90;99.90
28947;DHT22;16052;50.930;5.326;2023-07-31T10:08:16;17.90;99.90
28947;DHT22;16052;50.930;5.326;2023-07-31T10:10:44;17.90;99.90
28947;DHT22;16052;50.930;5.326;2023-07-31T10:13:11;18.00;99.90
28947;DHT22;16052;50.930;5.326;2023-07-31T10:15:38;18.00;99.90
28947;DHT22;16052;50.930;5.326;2023-07-31T10:18:06;18.10;99.90
28947;DHT22;16052;50.930;5.326;2023-07-31T10:20:32;18.20;99.90
28947;DHT22;16052;50.930;5.326;2023-07-31T10:22:58;18.30;99.90
28947;DHT22;16052;50.930;5.326;2023-07-31T10:25:26;18.30;99.90
28947;DHT22;16052;50.930;5.326;2023-07-31T10:27:53;18.30;99.90
28947;DHT22;16052;50.930;5.326;2023-07-31T10:30:22;18.30;99.90
28947;DHT22;16052;50.930;5.326;2023-07-31T10:32:50;18.40;99.90
28947;DHT22;16052;50.930;5.326;2023-07-31T10:35:17;18.30;99.90
28947;DHT22;16052;50.930;5.326;2023-07-31T10:37:43;18.30;99.90
28947;DHT22;16052;50.930;5.326;2023-07-31T10:40:13;18.30;99.90
28947;DHT22;16052;50.930;5.326;2023-07-31T10:42:49;18.40;99.90
28947;DHT22;16052;50.930;5.326;2023-07-31T10:48:00;18.20;99.90
28947;DHT22;16052;50.930;5.326;2023-07-31T10:50:26;18.20;99.90
28947;DHT22;16052;50.930;5.326;2023-07-31T10:52:56;18.10;99.90
28947;DHT22;16052;50.930;5.326;2023-07-31T10:58:06;18.30;99.90
28947;DHT22;16052;50.930;5.326;2023-07-31T11:00:32;18.30;99.90
28947;DHT22;16052;50.930;5.326;2023-07-31T11:10:40;18.30;99.90
28947;DHT22;16052;50.930;5.326;2023-07-31T11:13:06;18.40;99.90
28947;DHT22;16052;50.930;5.326;2023-07-31T11:15:32;18.50;99.90
28947;DHT22;16052;50.930;5.326;2023-07-31T11:17:57;18.60;99.90
28947;DHT22;16052;50.930;5.326;2023-07-31T11:20:27;18.60;99.90
28947;DHT22;16052;50.930;5.326;2023-07-31T11:22:54;18.70;99.90
28947;DHT22;16052;50.930;5.326;2023-07-31T11:25:20;18.70;99.90
28947;DHT22;16052;50.930;5.326;2023-07-31T11:27:48;18.80;99.90
28947;DHT22;16052;50.930;5.326;2023-07-31T11:30:19;18.80;99.90
28947;DHT22;16052;50.930;5.326;2023-07-31T11:32:45;18.90;99.90
28947;DHT22;16052;50.930;5.326;2023-07-31T11:35:14;18.90;99.90
28947;DHT22;16052;50.930;5.326;2023-07-31T11:37:43;19.00;99.90
28947;DHT22;16052;50.930;5.326;2023-07-31T11:40:09;19.10;99.90
28947;DHT22;16052;50.930;5.326;2023-07-31T11:42:36;19.20;99.90
28947;DHT22;16052;50.930;5.326;2023-07-31T11:45:05;19.20;99.90
28947;DHT22;16052;50.930;5.326;2023-07-31T11:47:36;19.30;99.90
28947;DHT22;16052;50.930;5.326;2023-07-31T11:50:06;19.40;99.90
28947;DHT22;16052;50.930;5.326;2023-07-31T11:52:41;19.40;99.90
28947;DHT22;16052;50.930;5.326;2023-07-31T11:55:08;19.40;99.90
28947;DHT22;16052;50.930;5.326;2023-07-31T11:57:39;19.40;99.90
28947;DHT22;16052;50.930;5.326;2023-07-31T12:00:10;19.40;99.90
28947;DHT22;16052;50.930;5.326;2023-07-31T12:02:37;19.50;99.90
28947;DHT22;16052;50.930;5.326;2023-07-31T12:05:11;19.60;99.90
28947;DHT22;16052;50.930;5.326;2023-07-31T12:07:47;19.50;99.90
28947;DHT22;16052;50.930;5.326;2023-07-31T12:10:30;19.50;99.90
28947;DHT22;16052;50.930;5.326;2023-07-31T12:15:53;19.70;99.90
28947;DHT22;16052;50.930;5.326;2023-07-31T12:18:20;19.80;99.90
28947;DHT22;16052;50.930;5.326;2023-07-31T12:20:48;19.90;99.90
28947;DHT22;16052;50.930;5.326;2023-07-31T12:23:22;19.90;99.90
28947;DHT22;16052;50.930;5.326;2023-07-31T12:26:20;19.90;99.90
28947;DHT22;16052;50.930;5.326;2023-07-31T12:28:46;19.90;99.90
28947;DHT22;16052;50.930;5.326;2023-07-31T12:31:15;19.80;99.90
28947;DHT22;16052;50.930;5.326;2023-07-31T12:33:43;19.90;99.90
28947;DHT22;16052;50.930;5.326;2023-07-31T12:36:31;19.90;99.90
28947;DHT22;16052;50.930;5.326;2023-07-31T12:39:00;19.90;99.90
28947;DHT22;16052;50.930;5.326;2023-07-31T12:41:26;20.00;99.90
28947;DHT22;16052;50.930;5.326;2023-07-31T12:43:54;20.20;99.90
28947;DHT22;16052;50.930;5.326;2023-07-31T12:46:19;20.30;99.90
28947;DHT22;16052;50.930;5.326;2023-07-31T12:48:46;20.40;99.90
28947;DHT22;16052;50.930;5.326;2023-07-31T12:51:12;20.40;99.90
28947;DHT22;16052;50.930;5.326;2023-07-31T12:53:37;20.30;99.90
28947;DHT22;16052;50.930;5.326;2023-07-31T12:56:03;20.30;99.90
28947;DHT22;16052;50.930;5.326;2023-07-31T12:58:29;20.40;99.90
28947;DHT22;16052;50.930;5.326;2023-07-31T13:00:55;20.30;99.90
28947;DHT22;16052;50.930;5.326;2023-07-31T13:03:20;20.30;99.90
28947;DHT22;16052;50.930;5.326;2023-07-31T13:05:46;20.20;99.90
28947;DHT22;16052;50.930;5.326;2023-07-31T13:08:12;20.20;99.90
28947;DHT22;16052;50.930;5.326;2023-07-31T13:10:37;20.20;99.90
28947;DHT22;16052;50.930;5.326;2023-07-31T13:13:03;20.20;99.90
28947;DHT22;16052;50.930;5.326;2023-07-31T13:15:29;20.20;99.90
28947;DHT22;16052;50.930;5.326;2023-07-31T13:17:54;20.10;99.90
28947;DHT22;16052;50.930;5.326;2023-07-31T13:20:20;20.10;99.90
28947;DHT22;16052;50.930;5.326;2023-07-31T13:22:46;20.20;99.90
28947;DHT22;16052;50.930;5.326;2023-07-31T13:25:11;20.10;99.90
28947;DHT22;16052;50.930;5.326;2023-07-31T13:27:37;20.10;99.90
28947;DHT22;16052;50.930;5.326;2023-07-31T13:30:03;20.10;99.90
28947;DHT22;16052;50.930;5.326;2023-07-31T13:32:29;19.90;99.90
28947;DHT22;16052;50.930;5.326;2023-07-31T13:34:55;20.00;99.90
28947;DHT22;16052;50.930;5.326;2023-07-31T13:37:20;20.00;99.90
28947;DHT22;16052;50.930;5.326;2023-07-31T13:39:46;20.00;99.90
28947;DHT22;16052;50.930;5.326;2023-07-31T13:42:12;19.90;99.90
28947;DHT22;16052;50.930;5.326;2023-07-31T13:44:42;20.10;99.90
28947;DHT22;16052;50.930;5.326;2023-07-31T13:47:08;20.00;99.90
28947;DHT22;16052;50.930;5.326;2023-07-31T13:49:34;20.10;99.90
28947;DHT22;16052;50.930;5.326;2023-07-31T13:52:01;20.00;99.90
28947;DHT22;16052;50.930;5.326;2023-07-31T13:54:26;19.90;99.90
28947;DHT22;16052;50.930;5.326;2023-07-31T13:56:53;19.90;99.90
28947;DHT22;16052;50.930;5.326;2023-07-31T13:59:18;20.00;99.90
28947;DHT22;16052;50.930;5.326;2023-07-31T14:01:44;20.00;99.90
28947;DHT22;16052;50.930;5.326;2023-07-31T14:04:10;19.90;99.90
28947;DHT22;16052;50.930;5.326;2023-07-31T14:06:36;19.90;99.90
28947;DHT22;16052;50.930;5.326;2023-07-31T14:09:02;19.90;99.90
28947;DHT22;16052;50.930;5.326;2023-07-31T14:11:28;20.00;99.90
28947;DHT22;16052;50.930;5.326;2023-07-31T14:13:55;19.90;99.90
28947;DHT22;16052;50.930;5.326;2023-07-31T14:16:22;19.90;99.90
28947;DHT22;16052;50.930;5.326;2023-07-31T14:18:47;19.90;99.90
28947;DHT22;16052;50.930;5.326;2023-07-31T14:21:13;19.90;99.90
28947;DHT22;16052;50.930;5.326;2023-07-31T14:23:39;19.90;99.90
28947;DHT22;16052;50.930;5.326;2023-07-31T14:26:05;19.80;99.90
28947;DHT22;16052;50.930;5.326;2023-07-31T14:28:31;19.70;99.90
28947;DHT22;16052;50.930;5.326;2023-07-31T14:30:56;19.60;99.90
28947;DHT22;16052;50.930;5.326;2023-07-31T14:33:22;19.60;99.90
28947;DHT22;16052;50.930;5.326;2023-07-31T14:35:48;19.50;99.90
28947;DHT22;16052;50.930;5.326;2023-07-31T14:38:13;19.60;99.90
28947;DHT22;16052;50.930;5.326;2023-07-31T14:40:39;19.40;99.90
28947;DHT22;16052;50.930;5.326;2023-07-31T14:43:05;19.30;99.90
28947;DHT22;16052;50.930;5.326;2023-07-31T14:45:30;19.20;99.90
28947;DHT22;16052;50.930;5.326;2023-07-31T14:47:56;19.20;99.90
28947;DHT22;16052;50.930;5.326;2023-07-31T14:50:22;18.90;99.90
28947;DHT22;16052;50.930;5.326;2023-07-31T14:52:48;18.90;99.90
28947;DHT22;16052;50.930;5.326;2023-07-31T14:55:14;18.90;99.90
28947;DHT22;16052;50.930;5.326;2023-07-31T14:57:40;19.00;99.90
28947;DHT22;16052;50.930;5.326;2023-07-31T15:00:06;19.00;99.90
28947;DHT22;16052;50.930;5.326;2023-07-31T15:02:36;18.90;99.90
28947;DHT22;16052;50.930;5.326;2023-07-31T15:05:02;18.80;99.90
28947;DHT22;16052;50.930;5.326;2023-07-31T15:07:28;18.70;99.90
28947;DHT22;16052;50.930;5.326;2023-07-31T15:09:54;18.70;99.90
28947;DHT22;16052;50.930;5.326;2023-07-31T15:12:19;18.70;99.90
28947;DHT22;16052;50.930;5.326;2023-07-31T15:14:45;18.70;99.90
28947;DHT22;16052;50.930;5.326;2023-07-31T15:17:11;18.70;99.90
28947;DHT22;16052;50.930;5.326;2023-07-31T15:19:36;18.60;99.90
28947;DHT22;16052;50.930;5.326;2023-07-31T15:22:03;18.60;99.90
28947;DHT22;16052;50.930;5.326;2023-07-31T15:24:29;18.50;99.90
28947;DHT22;16052;50.930;5.326;2023-07-31T15:26:55;18.50;99.90
28947;DHT22;16052;50.930;5.326;2023-07-31T15:29:20;18.50;99.90
28947;DHT22;16052;50.930;5.326;2023-07-31T15:31:47;18.50;99.90
28947;DHT22;16052;50.930;5.326;2023-07-31T15:34:13;18.50;99.90
28947;DHT22;16052;50.930;5.326;2023-07-31T15:36:39;18.60;99.90
28947;DHT22;16052;50.930;5.326;2023-07-31T15:39:05;18.60;99.90
28947;DHT22;16052;50.930;5.326;2023-07-31T15:41:36;18.50;99.90
28947;DHT22;16052;50.930;5.326;2023-07-31T15:44:02;18.50;99.90
28947;DHT22;16052;50.930;5.326;2023-07-31T15:46:28;18.40;99.90
28947;DHT22;16052;50.930;5.326;2023-07-31T15:48:54;18.40;99.90
28947;DHT22;16052;50.930;5.326;2023-07-31T15:51:20;18.50;99.90